KMIE/MIE METAR and TAF weather

Enter ICAO airport designator
Station Type Date Time Source
KMIE METAR 2020/09/21 05:53 UTC NOAA

KMIE 210553Z AUTO 13005KT 10SM CLR 08/03 A3041 RMK AO2 SLP293 T00830028 10144 20083 58002


Station Type Date Time Source
KMIE Decoded METAR 2020/09/21 05:53 UTC NOAA

MUNCIE DELAWARE JOHNSON, IN, United States (KMIE) 40-14N 85-24W 285M
Sep 21, 2020 - 01:53 AM EDT / 2020.09.21 0553 UTC
Wind: from the SE (130 degrees) at 6 MPH (5 KT):0
Visibility: 10 mile(s):0
Sky conditions: clear
Temperature: 46.9 F (8.3 C)
Dew Point: 37.0 F (2.8 C)
Relative Humidity: 68%
Pressure (altimeter): 30.41 in. Hg (1029 hPa)
Pressure tendency: 0.01 inches (0.2 hPa) lower than three hours ago
ob: KMIE 210553Z AUTO 13005KT 10SM CLR 08/03 A3041 RMK AO2 SLP293 T00830028 10144 20083 58002
cycle: 6

Station Type Date Time Source
KMIE TAF UTC NOAA

Error!

Example: see airport list